createdAt,value
2018-05-03T00:00:37.070Z,10.21
2018-05-03T00:01:36.808Z,10.32
2018-05-03T00:02:37.055Z,10.15
2018-05-03T00:03:37.041Z,10.17
2018-05-03T00:04:36.514Z,10.15
2018-05-03T00:05:37.022Z,10.07
2018-05-03T00:06:37.007Z,10.07
2018-05-03T00:07:37.003Z,10.08
2018-05-03T00:08:36.989Z,10.08
2018-05-03T00:09:36.725Z,10.07
2018-05-03T00:10:36.459Z,10
2018-05-03T00:11:36.961Z,10.07
2018-05-03T00:12:36.955Z,10.11
2018-05-03T00:13:36.944Z,10.17
2018-05-03T00:14:36.936Z,10.2
2018-05-03T00:15:36.665Z,10.18
2018-05-03T00:16:36.401Z,10.17
2018-05-03T00:17:36.906Z,10.31
2018-05-03T00:18:36.903Z,10.26
2018-05-03T00:19:36.885Z,10.28
2018-05-03T00:20:36.878Z,10.25
2018-05-03T00:21:36.605Z,10.17
2018-05-03T00:22:36.345Z,10.13
2018-05-03T00:23:36.588Z,10.2
2018-05-03T00:24:36.577Z,10.13
2018-05-03T00:25:36.829Z,10.11
2018-05-03T00:26:36.815Z,10.26
2018-05-03T00:27:36.547Z,10.18
2018-05-03T00:28:36.796Z,10.18
2018-05-03T00:29:36.529Z,10.14
2018-05-03T00:30:36.775Z,10.02
2018-05-03T00:31:36.772Z,10.17
2018-05-03T00:32:36.502Z,10.05
2018-05-03T00:33:36.748Z,10.1
2018-05-03T00:34:36.481Z,9.98
2018-05-03T00:35:36.727Z,10.02
2018-05-03T00:36:36.469Z,9.96
2018-05-03T00:37:36.727Z,9.9
2018-05-03T00:38:36.703Z,9.89
2018-05-03T00:39:36.692Z,9.8
2018-05-03T00:40:36.683Z,9.89
2018-05-03T00:41:36.414Z,9.84
2018-05-03T00:42:36.664Z,9.81
2018-05-03T00:43:36.134Z,9.9
2018-05-03T00:44:36.645Z,9.84
2018-05-03T00:45:36.373Z,9.81
2018-05-03T00:46:36.364Z,9.8
2018-05-03T00:47:36.631Z,9.92
2018-05-03T00:48:36.344Z,9.88
2018-05-03T00:49:36.608Z,9.93
2018-05-03T00:50:36.326Z,9.89
2018-05-03T00:51:36.313Z,9.95
2018-05-03T00:52:36.310Z,9.85
2018-05-03T00:53:36.294Z,9.84
2018-05-03T00:54:36.621Z,9.81
2018-05-03T00:55:36.015Z,9.8
2018-05-03T00:56:36.011Z,9.85
2018-05-03T00:57:36.530Z,9.77
2018-05-03T00:58:36.260Z,9.74
2018-05-03T00:59:36.499Z,9.67
2018-05-03T01:00:36.483Z,9.67
2018-05-03T01:01:36.472Z,9.67
2018-05-03T01:02:36.530Z,9.64
2018-05-03T01:03:36.455Z,9.53
2018-05-03T01:04:36.447Z,9.53
2018-05-03T01:05:36.454Z,9.48
2018-05-03T01:06:36.166Z,9.47
2018-05-03T01:07:36.156Z,9.47
2018-05-03T01:08:36.403Z,9.41
2018-05-03T01:09:36.392Z,9.34
2018-05-03T01:10:36.127Z,9.37
2018-05-03T01:11:35.861Z,9.2
2018-05-03T01:12:36.362Z,9.26
2018-05-03T01:13:36.354Z,9.2
2018-05-03T01:14:36.344Z,9.19
2018-05-03T01:15:35.816Z,9.23
2018-05-03T01:16:36.065Z,9.17
2018-05-03T01:17:36.319Z,9.21
2018-05-03T01:18:36.381Z,9.23
2018-05-03T01:19:36.036Z,9.32
2018-05-03T01:20:36.023Z,9.29
2018-05-03T01:21:36.030Z,9.34
2018-05-03T01:22:36.004Z,9.34
2018-05-03T01:23:36.269Z,9.34
2018-05-03T01:24:36.252Z,9.32
2018-05-03T01:25:35.978Z,9.29
2018-05-03T01:26:35.962Z,9.3
2018-05-03T01:27:35.949Z,9.38
2018-05-03T01:28:36.206Z,9.39
2018-05-03T01:29:36.200Z,9.42
2018-05-03T01:30:36.201Z,9.32
2018-05-03T01:31:36.170Z,9.34
2018-05-03T01:32:35.902Z,9.3
2018-05-03T01:33:36.158Z,9.38
2018-05-03T01:34:35.881Z,9.37
2018-05-03T01:35:35.889Z,9.38
2018-05-03T01:36:36.118Z,9.44
2018-05-03T01:37:35.856Z,9.44
2018-05-03T01:38:36.098Z,9.48
2018-05-03T01:39:35.829Z,9.42
2018-05-03T01:40:35.836Z,9.44
2018-05-03T01:41:35.812Z,9.48
2018-05-03T01:42:35.798Z,9.44
2018-05-03T01:43:35.785Z,9.42
2018-05-03T01:44:35.517Z,9.41
2018-05-03T01:45:36.048Z,9.45
2018-05-03T01:46:36.018Z,9.45
2018-05-03T01:47:35.746Z,9.44
2018-05-03T01:48:36.046Z,9.38
2018-05-03T01:49:35.726Z,9.38
2018-05-03T01:50:35.718Z,9.47
2018-05-03T01:51:35.982Z,9.45
2018-05-03T01:52:35.699Z,9.52
2018-05-03T01:53:35.686Z,9.53
2018-05-03T01:54:35.950Z,9.44
2018-05-03T01:55:35.922Z,9.45
2018-05-03T01:56:35.652Z,9.47
2018-05-03T01:57:35.918Z,9.44
2018-05-03T01:58:35.888Z,9.37
2018-05-03T01:59:35.652Z,9.37
2018-05-03T02:00:35.612Z,9.37
2018-05-03T02:01:35.606Z,9.3
2018-05-03T02:02:35.613Z,9.35
2018-05-03T02:03:35.597Z,9.34
2018-05-03T02:04:35.571Z,9.35
2018-05-03T02:05:35.565Z,9.32
2018-05-03T02:06:35.815Z,9.35
2018-05-03T02:07:35.541Z,9.37
2018-05-03T02:08:35.803Z,9.29
2018-05-03T02:09:35.780Z,9.38
2018-05-03T02:10:35.770Z,9.37
2018-05-03T02:11:35.758Z,9.29
2018-05-03T02:12:35.489Z,9.29
2018-05-03T02:13:35.743Z,9.41
2018-05-03T02:14:35.730Z,9.44
2018-05-03T02:15:35.751Z,9.35
2018-05-03T02:16:35.704Z,9.47
2018-05-03T02:17:35.186Z,9.41
2018-05-03T02:18:35.430Z,9.41
2018-05-03T02:19:35.427Z,9.48
2018-05-03T02:20:35.153Z,9.5
2018-05-03T02:21:35.141Z,9.47
2018-05-03T02:22:35.385Z,9.52
2018-05-03T02:23:35.635Z,9.52
2018-05-03T02:24:35.109Z,9.53
2018-05-03T02:25:35.356Z,9.55
2018-05-03T02:26:35.603Z,9.56
2018-05-03T02:27:35.597Z,9.47
2018-05-03T02:28:35.583Z,9.5
2018-05-03T02:29:35.570Z,9.52
2018-05-03T02:30:35.314Z,9.5
2018-05-03T02:31:35.758Z,9.52
2018-05-03T02:32:35.540Z,9.48
2018-05-03T02:33:35.277Z,9.47
2018-05-03T02:34:35.268Z,9.53
2018-05-03T02:35:35.520Z,9.53
2018-05-03T02:36:35.509Z,9.52
2018-05-03T02:37:35.493Z,9.56
2018-05-03T02:38:35.239Z,9.47
2018-05-03T02:39:35.228Z,9.5
2018-05-03T02:40:35.462Z,9.42
2018-05-03T02:41:35.458Z,9.27
2018-05-03T02:42:35.443Z,9.27
2018-05-03T02:43:34.916Z,9.34
2018-05-03T02:44:34.907Z,9.39
2018-05-03T02:45:34.896Z,9.32
2018-05-03T02:46:35.400Z,9.3
2018-05-03T02:47:35.133Z,9.3
2018-05-03T02:48:35.382Z,9.3
2018-05-03T02:49:35.119Z,9.27
2018-05-03T02:50:35.374Z,9.19
2018-05-03T02:51:35.091Z,9.2
2018-05-03T02:52:35.081Z,9.19
2018-05-03T02:53:35.077Z,9.19
2018-05-03T02:54:35.324Z,9.2
2018-05-03T02:55:35.318Z,9.2
2018-05-03T02:56:35.041Z,9.19
2018-05-03T02:57:35.028Z,9.32
2018-05-03T02:58:35.278Z,9.34
2018-05-03T02:59:35.007Z,9.34
2018-05-03T03:00:35.262Z,9.29
2018-05-03T03:01:35.262Z,9.27
2018-05-03T03:02:34.721Z,9.3
2018-05-03T03:03:34.970Z,9.34
2018-05-03T03:04:34.966Z,9.39
2018-05-03T03:05:35.208Z,9.3
2018-05-03T03:06:35.203Z,9.32
2018-05-03T03:07:35.195Z,9.32
2018-05-03T03:08:35.204Z,9.37
2018-05-03T03:09:35.047Z,9.32
2018-05-03T03:10:35.159Z,9.34
2018-05-03T03:11:34.891Z,9.34
2018-05-03T03:12:35.132Z,9.39
2018-05-03T03:13:35.349Z,9.34
2018-05-03T03:14:34.597Z,9.39
2018-05-03T03:15:35.132Z,9.39
2018-05-03T03:16:35.141Z,9.3
2018-05-03T03:17:35.087Z,9.3
2018-05-03T03:18:35.076Z,9.23
2018-05-03T03:19:34.821Z,9.27
2018-05-03T03:20:35.055Z,9.24
2018-05-03T03:21:34.808Z,9.17
2018-05-03T03:22:35.055Z,9.19
2018-05-03T03:23:34.766Z,9.14
2018-05-03T03:24:35.023Z,9.11
2018-05-03T03:25:34.947Z,9.03
2018-05-03T03:26:34.995Z,9.04
2018-05-03T03:27:34.725Z,9
2018-05-03T03:28:34.972Z,8.98
2018-05-03T03:29:34.968Z,9.08
2018-05-03T03:30:34.439Z,9.01
2018-05-03T03:31:34.956Z,8.97
2018-05-03T03:32:34.673Z,9.09
2018-05-03T03:33:34.924Z,8.98
2018-05-03T03:34:34.927Z,9
2018-05-03T03:35:34.641Z,9.04
2018-05-03T03:36:34.635Z,9.08
2018-05-03T03:37:34.885Z,9.09
2018-05-03T03:38:34.872Z,9.12
2018-05-03T03:39:34.858Z,9.14
2018-05-03T03:40:34.927Z,9.16
2018-05-03T03:41:34.843Z,9.21
2018-05-03T03:42:34.583Z,9.23
2018-05-03T03:43:34.558Z,9.2
2018-05-03T03:44:34.547Z,9.23
2018-05-03T03:45:34.801Z,9.2
2018-05-03T03:46:34.537Z,9.3
2018-05-03T03:47:34.783Z,9.34
2018-05-03T03:48:34.774Z,9.35
2018-05-03T03:49:34.758Z,9.39
2018-05-03T03:50:34.744Z,9.44
2018-05-03T03:51:34.732Z,9.48
2018-05-03T03:52:34.726Z,9.47
2018-05-03T03:53:34.715Z,9.48
2018-05-03T03:54:34.445Z,9.5
2018-05-03T03:55:34.694Z,9.55
2018-05-03T03:56:34.690Z,9.64
2018-05-03T03:57:34.429Z,9.53
2018-05-03T03:58:34.662Z,9.64
2018-05-03T03:59:34.651Z,9.57
2018-05-03T04:00:34.662Z,9.62
2018-05-03T04:01:34.631Z,9.66
2018-05-03T04:02:34.106Z,9.56
2018-05-03T04:03:34.609Z,9.72
2018-05-03T04:04:34.601Z,9.71
2018-05-03T04:05:34.594Z,9.7
2018-05-03T04:06:34.321Z,9.66
2018-05-03T04:07:34.315Z,9.66
2018-05-03T04:08:34.566Z,9.71
2018-05-03T04:09:34.291Z,9.7
2018-05-03T04:10:34.026Z,9.7
2018-05-03T04:11:34.018Z,9.71
2018-05-03T04:12:34.265Z,9.75
2018-05-03T04:13:34.514Z,9.7
2018-05-03T04:14:34.497Z,9.71
2018-05-03T04:15:34.492Z,9.77
2018-05-03T04:16:34.485Z,9.81
2018-05-03T04:17:34.469Z,9.78
2018-05-03T04:18:34.462Z,9.82
2018-05-03T04:19:34.673Z,9.78
2018-05-03T04:20:34.189Z,9.84
2018-05-03T04:21:34.447Z,9.81
2018-05-03T04:22:34.344Z,9.93
2018-05-03T04:23:34.406Z,9.92
2018-05-03T04:24:34.345Z,9.95
2018-05-03T04:25:34.390Z,9.9
2018-05-03T04:26:34.616Z,9.96
2018-05-03T04:27:34.109Z,9.93
2018-05-03T04:28:34.375Z,10
2018-05-03T04:29:34.365Z,10
2018-05-03T04:30:33.820Z,10.03
2018-05-03T04:31:34.335Z,10.03
2018-05-03T04:32:34.327Z,10.08
2018-05-03T04:33:34.050Z,10.1
2018-05-03T04:34:34.503Z,10.07
2018-05-03T04:35:34.293Z,10.1
2018-05-03T04:36:34.027Z,10.03
2018-05-03T04:37:34.012Z,10.03
2018-05-03T04:38:34.007Z,10.14
2018-05-03T04:39:34.257Z,10.17
2018-05-03T04:40:33.985Z,10.14
2018-05-03T04:41:34.250Z,10.15
2018-05-03T04:42:33.962Z,10.17
2018-05-03T04:43:34.232Z,10.14
2018-05-03T04:44:34.211Z,10.13
2018-05-03T04:45:34.193Z,10.14
2018-05-03T04:46:33.667Z,10.28
2018-05-03T04:47:34.175Z,10.2
2018-05-03T04:48:33.902Z,10.23
2018-05-03T04:49:34.150Z,10.23
2018-05-03T04:50:33.627Z,10.26
2018-05-03T04:51:34.134Z,10.28
2018-05-03T04:52:34.125Z,10.35
2018-05-03T04:53:34.074Z,10.31
2018-05-03T04:54:34.101Z,10.46
2018-05-03T04:55:34.096Z,10.36
2018-05-03T04:56:33.820Z,10.47
2018-05-03T04:57:34.076Z,10.55
2018-05-03T04:58:34.303Z,10.57
2018-05-03T04:59:34.072Z,10.47
2018-05-03T05:00:33.790Z,10.65
2018-05-03T05:01:34.037Z,10.69
2018-05-03T05:02:33.772Z,10.67
2018-05-03T05:03:34.016Z,10.7
2018-05-03T05:04:34.024Z,10.66
2018-05-03T05:05:33.485Z,10.76
2018-05-03T05:06:34.015Z,10.73
2018-05-03T05:07:33.980Z,10.77
2018-05-03T05:08:33.455Z,10.83
2018-05-03T05:09:34.193Z,10.92
2018-05-03T05:10:34.171Z,10.88
2018-05-03T05:11:33.683Z,10.91
2018-05-03T05:12:33.933Z,10.94
2018-05-03T05:13:33.939Z,10.97
2018-05-03T05:14:33.665Z,11.06
2018-05-03T05:15:33.906Z,10.92
2018-05-03T05:16:33.900Z,10.97
2018-05-03T05:17:33.890Z,11.02
2018-05-03T05:18:33.619Z,10.98
2018-05-03T05:19:33.611Z,10.92
2018-05-03T05:20:33.609Z,10.88
2018-05-03T05:21:33.598Z,10.95
2018-05-03T05:22:33.582Z,10.88
2018-05-03T05:23:33.571Z,10.91
2018-05-03T05:24:33.581Z,10.8
2018-05-03T05:25:33.824Z,10.76
2018-05-03T05:26:33.560Z,10.73
2018-05-03T05:27:33.815Z,10.8
2018-05-03T05:28:33.524Z,10.79
2018-05-03T05:29:33.518Z,10.84
2018-05-03T05:30:33.514Z,10.77
2018-05-03T05:31:33.505Z,10.76
2018-05-03T05:32:33.769Z,10.83
2018-05-03T05:33:33.753Z,10.8
2018-05-03T05:34:33.477Z,10.76
2018-05-03T05:35:33.721Z,10.72
2018-05-03T05:36:33.452Z,10.77
2018-05-03T05:37:33.731Z,10.72
2018-05-03T05:38:33.840Z,10.69
2018-05-03T05:39:33.748Z,10.66
2018-05-03T05:40:33.426Z,10.65
2018-05-03T05:41:33.408Z,10.69
2018-05-03T05:42:33.661Z,10.72
2018-05-03T05:43:33.647Z,10.69
2018-05-03T05:44:33.646Z,10.67
2018-05-03T05:45:33.629Z,10.63
2018-05-03T05:46:33.623Z,10.67
2018-05-03T05:47:33.356Z,10.65
2018-05-03T05:48:33.613Z,10.76
2018-05-03T05:49:33.339Z,10.8
2018-05-03T05:50:33.326Z,10.77
2018-05-03T05:51:33.576Z,10.75
2018-05-03T05:52:33.305Z,10.76
2018-05-03T05:53:33.298Z,10.88
2018-05-03T05:54:33.286Z,10.87
2018-05-03T05:55:33.538Z,10.8
2018-05-03T05:56:33.270Z,10.79
2018-05-03T05:57:33.256Z,10.9
2018-05-03T05:58:33.509Z,10.9
2018-05-03T05:59:33.579Z,10.92
2018-05-03T06:00:32.986Z,10.88
2018-05-03T06:01:33.492Z,11.03
2018-05-03T06:02:33.474Z,11.12
2018-05-03T06:03:33.466Z,11.15
2018-05-03T06:04:33.458Z,11.13
2018-05-03T06:05:33.442Z,11.18
2018-05-03T06:06:33.455Z,11.21
2018-05-03T06:07:32.912Z,11.23
2018-05-03T06:08:33.419Z,11.24
2018-05-03T06:09:32.888Z,11.34
2018-05-03T06:10:33.505Z,11.48
2018-05-03T06:11:33.393Z,11.59
2018-05-03T06:12:33.379Z,11.53
2018-05-03T06:13:33.366Z,11.46
2018-05-03T06:14:33.367Z,11.56
2018-05-03T06:15:33.358Z,11.66
2018-05-03T06:16:33.343Z,11.63
2018-05-03T06:17:33.077Z,11.61
2018-05-03T06:18:33.331Z,11.67
2018-05-03T06:19:33.060Z,11.73
2018-05-03T06:20:33.049Z,11.81
2018-05-03T06:21:33.325Z,12.04
2018-05-03T06:22:33.040Z,12.04
2018-05-03T06:23:33.285Z,12.13
2018-05-03T06:24:33.018Z,12.13
2018-05-03T06:25:33.034Z,12.15
2018-05-03T06:26:33.276Z,12.19
2018-05-03T06:27:32.991Z,12.28
2018-05-03T06:28:32.980Z,12.38
2018-05-03T06:29:33.245Z,12.31
2018-05-03T06:30:32.968Z,12.29
2018-05-03T06:31:32.702Z,12.25
2018-05-03T06:32:33.213Z,12.45
2018-05-03T06:33:33.203Z,12.45
2018-05-03T06:34:33.191Z,12.45
2018-05-03T06:35:33.184Z,12.29
2018-05-03T06:36:33.188Z,12.41
2018-05-03T06:37:33.167Z,12.4
2018-05-03T06:38:32.993Z,12.34
2018-05-03T06:39:33.152Z,12.31
2018-05-03T06:40:33.147Z,12.48
2018-05-03T06:41:33.136Z,12.38
2018-05-03T06:42:33.127Z,12.38
2018-05-03T06:43:33.117Z,12.34
2018-05-03T06:44:32.856Z,12.31
2018-05-03T06:45:32.849Z,12.25
2018-05-03T06:46:33.114Z,12.33
2018-05-03T06:47:33.086Z,12.28
2018-05-03T06:48:32.829Z,12.23
2018-05-03T06:49:32.556Z,12.15
2018-05-03T06:50:32.808Z,12.1
2018-05-03T06:51:33.276Z,12.03
2018-05-03T06:52:33.050Z,12.03
2018-05-03T06:53:33.039Z,12.16
2018-05-03T06:54:33.030Z,12.05
2018-05-03T06:55:32.765Z,12.07
2018-05-03T06:56:32.759Z,12.15
2018-05-03T06:57:33.005Z,12.16
2018-05-03T06:58:33.145Z,12.16
2018-05-03T06:59:32.994Z,12.18
2018-05-03T07:00:32.987Z,12.15
2018-05-03T07:01:32.722Z,12.13
2018-05-03T07:02:32.714Z,12.08
2018-05-03T07:03:32.703Z,12.03
2018-05-03T07:04:32.924Z,12.07
2018-05-03T07:05:32.686Z,12.08
2018-05-03T07:06:32.711Z,12.04
2018-05-03T07:07:32.926Z,12.1
2018-05-03T07:08:32.668Z,12
2018-05-03T07:09:32.910Z,12.03
2018-05-03T07:10:32.906Z,12
2018-05-03T07:11:32.896Z,12
2018-05-03T07:12:32.888Z,11.98
2018-05-03T07:13:32.880Z,12.05
2018-05-03T07:14:32.869Z,12.07
2018-05-03T07:15:32.830Z,12.1
2018-05-03T07:16:32.602Z,12.08
2018-05-03T07:17:32.848Z,12.08
2018-05-03T07:18:32.579Z,12.05
2018-05-03T07:19:32.836Z,12.04
2018-05-03T07:20:32.563Z,12.03
2018-05-03T07:21:32.815Z,12.03
2018-05-03T07:22:32.846Z,12.07
2018-05-03T07:23:32.280Z,12.03
2018-05-03T07:24:32.531Z,11.98
2018-05-03T07:25:32.785Z,11.95
2018-05-03T07:26:32.263Z,12
2018-05-03T07:27:32.506Z,12.03
2018-05-03T07:28:32.960Z,12.01
2018-05-03T07:29:32.707Z,12.07
2018-05-03T07:30:32.490Z,12.01
2018-05-03T07:31:32.479Z,12
2018-05-03T07:32:32.465Z,12
2018-05-03T07:33:32.461Z,12.07
2018-05-03T07:34:32.450Z,11.95
2018-05-03T07:35:32.443Z,12.03
2018-05-03T07:36:32.695Z,12.04
2018-05-03T07:37:32.441Z,11.98
2018-05-03T07:38:32.685Z,12.2
2018-05-03T07:39:32.674Z,12.23
2018-05-03T07:40:32.656Z,12.29
2018-05-03T07:41:32.400Z,12.37
2018-05-03T07:42:32.386Z,12.38
2018-05-03T07:43:32.651Z,12.4
2018-05-03T07:44:32.626Z,12.44
2018-05-03T07:45:32.643Z,12.41
2018-05-03T07:46:32.617Z,12.41
2018-05-03T07:47:32.611Z,12.4
2018-05-03T07:48:32.677Z,12.51
2018-05-03T07:49:32.589Z,12.55
2018-05-03T07:50:32.578Z,12.53
2018-05-03T07:51:32.316Z,12.53
2018-05-03T07:52:32.563Z,12.48
2018-05-03T07:53:32.564Z,12.55
2018-05-03T07:54:32.567Z,12.58
2018-05-03T07:55:32.541Z,12.56
2018-05-03T07:56:32.274Z,12.48
2018-05-03T07:57:32.527Z,12.55
2018-05-03T07:58:32.000Z,12.59
2018-05-03T07:59:32.523Z,12.69
2018-05-03T08:00:32.503Z,12.74
2018-05-03T08:01:32.501Z,12.73
2018-05-03T08:02:32.504Z,12.73
2018-05-03T08:03:32.479Z,12.73
2018-05-03T08:04:32.214Z,12.66
2018-05-03T08:05:31.947Z,12.66
2018-05-03T08:06:32.197Z,12.66
2018-05-03T08:07:32.452Z,12.62
2018-05-03T08:08:32.446Z,12.58
2018-05-03T08:09:32.178Z,12.59
2018-05-03T08:10:32.467Z,12.71
2018-05-03T08:11:32.419Z,12.81
2018-05-03T08:12:32.497Z,12.96
2018-05-03T08:13:32.419Z,12.99
2018-05-03T08:14:32.403Z,12.91
2018-05-03T08:15:32.131Z,13.03
2018-05-03T08:16:32.124Z,13.09
2018-05-03T08:17:32.375Z,13.09
2018-05-03T08:18:32.369Z,13.2
2018-05-03T08:19:32.360Z,13.27
2018-05-03T08:20:32.353Z,13.53
2018-05-03T08:21:32.350Z,13.55
2018-05-03T08:22:32.553Z,13.66
2018-05-03T08:23:32.080Z,13.83
2018-05-03T08:24:32.327Z,13.97
2018-05-03T08:25:32.294Z,14.24
2018-05-03T08:26:31.791Z,14.41
2018-05-03T08:27:32.282Z,14.51
2018-05-03T08:28:32.142Z,14.66
2018-05-03T08:29:32.027Z,14.8
2018-05-03T08:30:32.309Z,14.98
2018-05-03T08:31:32.286Z,15.05
2018-05-03T08:32:32.010Z,15.02
2018-05-03T08:33:32.262Z,15.05
2018-05-03T08:34:31.997Z,15.18
2018-05-03T08:35:32.249Z,15.02
2018-05-03T08:36:31.989Z,15
2018-05-03T08:37:32.255Z,15.02
2018-05-03T08:38:32.232Z,15
2018-05-03T08:39:31.970Z,14.93
2018-05-03T08:40:31.962Z,14.89
2018-05-03T08:41:31.956Z,14.8
2018-05-03T08:42:31.951Z,14.57
2018-05-03T08:43:31.952Z,14.66
2018-05-03T08:44:32.280Z,14.66
2018-05-03T08:45:32.193Z,14.67
2018-05-03T08:46:32.387Z,14.75
2018-05-03T08:47:32.178Z,14.69
2018-05-03T08:48:32.187Z,14.67
2018-05-03T08:49:32.171Z,14.71
2018-05-03T08:50:32.168Z,14.74
2018-05-03T08:51:32.155Z,14.7
2018-05-03T08:52:31.890Z,14.69
2018-05-03T08:53:32.147Z,14.63
2018-05-03T08:54:32.137Z,14.49
2018-05-03T08:55:32.050Z,14.52
2018-05-03T08:56:31.869Z,14.39
2018-05-03T08:57:32.132Z,14.42
2018-05-03T08:58:31.852Z,14.27
2018-05-03T08:59:32.116Z,14.12
2018-05-03T09:00:31.846Z,14.09
2018-05-03T09:01:32.223Z,14.05
2018-05-03T09:02:32.091Z,13.97
2018-05-03T09:03:31.571Z,13.97
2018-05-03T09:04:31.820Z,13.99
2018-05-03T09:05:32.075Z,14.02
2018-05-03T09:06:32.077Z,14.11
2018-05-03T09:07:32.178Z,14.11
2018-05-03T09:08:31.796Z,14.15
2018-05-03T09:09:32.049Z,14.3
2018-05-03T09:10:32.046Z,14.26
2018-05-03T09:11:32.034Z,14.23
2018-05-03T09:12:31.999Z,14.24
2018-05-03T09:13:31.769Z,14.26
2018-05-03T09:14:32.018Z,14.15
2018-05-03T09:15:32.015Z,14.23
2018-05-03T09:16:32.012Z,14.15
2018-05-03T09:17:31.748Z,14.24
2018-05-03T09:18:31.997Z,14.16
2018-05-03T09:19:31.473Z,14.27
2018-05-03T09:20:31.468Z,14.27
2018-05-03T09:21:31.728Z,14.36
2018-05-03T09:22:31.806Z,14.34
2018-05-03T09:23:31.965Z,14.31
2018-05-03T09:24:31.703Z,14.44
2018-05-03T09:25:31.953Z,14.42
2018-05-03T09:26:31.979Z,14.45
2018-05-03T09:27:31.948Z,14.41
2018-05-03T09:28:31.680Z,14.42
2018-05-03T09:29:31.944Z,14.36
2018-05-03T09:30:31.922Z,14.33
2018-05-03T09:31:31.664Z,14.38
2018-05-03T09:32:31.911Z,14.28
2018-05-03T09:33:31.646Z,14.3
2018-05-03T09:34:31.906Z,14.26
2018-05-03T09:35:31.636Z,14.33
2018-05-03T09:36:31.635Z,14.27
2018-05-03T09:37:31.882Z,14.3
2018-05-03T09:38:31.621Z,14.31
2018-05-03T09:39:31.611Z,14.34
2018-05-03T09:40:31.868Z,14.3
2018-05-03T09:41:31.861Z,14.3
2018-05-03T09:42:31.600Z,14.31
2018-05-03T09:43:31.866Z,14.44
2018-05-03T09:44:31.614Z,14.48
2018-05-03T09:45:31.796Z,14.42
2018-05-03T09:46:31.573Z,14.51
2018-05-03T09:47:31.569Z,14.53
2018-05-03T09:48:31.565Z,14.46
2018-05-03T09:49:31.557Z,14.66
2018-05-03T09:50:31.549Z,14.64
2018-05-03T09:51:31.801Z,14.85
2018-05-03T09:52:31.756Z,14.85
2018-05-03T09:53:31.533Z,15
2018-05-03T09:54:31.788Z,15.04
2018-05-03T09:55:31.776Z,15.08
2018-05-03T09:56:31.258Z,15.15
2018-05-03T09:57:31.769Z,15.15
2018-05-03T09:58:31.521Z,15.25
2018-05-03T09:59:32.087Z,15.31
2018-05-03T10:00:31.754Z,15.35
2018-05-03T10:01:31.488Z,15.34
2018-05-03T10:02:31.739Z,15.33
2018-05-03T10:03:31.501Z,15.34
2018-05-03T10:04:31.487Z,15.3
2018-05-03T10:05:31.726Z,15.2
2018-05-03T10:06:31.205Z,15.15
2018-05-03T10:07:31.711Z,15.22
2018-05-03T10:08:31.716Z,15.3
2018-05-03T10:09:31.188Z,15.22
2018-05-03T10:10:31.704Z,15.12
2018-05-03T10:11:31.447Z,15.1
2018-05-03T10:12:31.688Z,15.13
2018-05-03T10:13:31.685Z,15.08
2018-05-03T10:14:31.785Z,15.25
2018-05-03T10:15:31.413Z,15.38
2018-05-03T10:16:31.669Z,15.33
2018-05-03T10:17:31.663Z,15.35
2018-05-03T10:18:31.656Z,15.4
2018-05-03T10:19:31.654Z,15.4
2018-05-03T10:20:31.393Z,15.4
2018-05-03T10:21:31.647Z,15.38
2018-05-03T10:22:31.700Z,15.33
2018-05-03T10:23:31.377Z,15.25
2018-05-03T10:24:31.375Z,15.34
2018-05-03T10:25:31.633Z,15.38
2018-05-03T10:26:31.620Z,15.43
2018-05-03T10:27:31.096Z,15.47
2018-05-03T10:28:31.828Z,15.53
2018-05-03T10:29:31.347Z,15.51
2018-05-03T10:30:31.603Z,15.59
2018-05-03T10:31:31.345Z,15.71
2018-05-03T10:32:31.592Z,15.77
2018-05-03T10:33:31.328Z,15.74
2018-05-03T10:34:31.333Z,15.7
2018-05-03T10:35:31.060Z,15.74
2018-05-03T10:36:31.592Z,15.63
2018-05-03T10:37:31.616Z,15.55
2018-05-03T10:38:31.318Z,15.51
2018-05-03T10:39:31.559Z,15.51
2018-05-03T10:40:31.567Z,15.45
2018-05-03T10:41:31.303Z,15.62
2018-05-03T10:42:31.542Z,15.52
2018-05-03T10:43:31.535Z,15.53
2018-05-03T10:44:31.284Z,15.47
2018-05-03T10:45:31.270Z,15.45
2018-05-03T10:46:31.269Z,15.4
2018-05-03T10:47:31.518Z,15.43
2018-05-03T10:48:31.518Z,15.4
2018-05-03T10:49:31.527Z,15.38
2018-05-03T10:50:31.248Z,15.41
2018-05-03T10:51:31.507Z,15.4
2018-05-03T10:52:31.510Z,15.56
2018-05-03T10:53:31.491Z,15.67
2018-05-03T10:54:31.228Z,15.67
2018-05-03T10:55:31.685Z,15.77
2018-05-03T10:56:31.477Z,15.84
2018-05-03T10:57:31.631Z,15.96
2018-05-03T10:58:31.465Z,16.02
2018-05-03T10:59:31.204Z,16
2018-05-03T11:00:31.464Z,16.18
2018-05-03T11:01:31.199Z,16.18
2018-05-03T11:02:31.195Z,16.27
2018-05-03T11:03:31.469Z,16.29
2018-05-03T11:04:31.450Z,16.29
2018-05-03T11:05:31.581Z,16.29
2018-05-03T11:06:31.434Z,16.29
2018-05-03T11:07:31.426Z,16.29
2018-05-03T11:08:31.425Z,16.3
2018-05-03T11:09:31.161Z,16.4
2018-05-03T11:10:31.854Z,16.32
2018-05-03T11:11:31.151Z,16.51
2018-05-03T11:12:31.405Z,16.48
2018-05-03T11:13:31.409Z,16.49
2018-05-03T11:14:31.394Z,16.55
2018-05-03T11:15:31.133Z,16.69
2018-05-03T11:16:31.391Z,16.74
2018-05-03T11:17:31.133Z,16.85
2018-05-03T11:18:31.127Z,16.88
2018-05-03T11:19:31.135Z,16.92
2018-05-03T11:20:30.856Z,16.95
2018-05-03T11:21:31.153Z,16.94
2018-05-03T11:22:31.372Z,16.95
2018-05-03T11:23:31.105Z,16.72
2018-05-03T11:24:31.119Z,16.57
2018-05-03T11:25:30.835Z,16.49
2018-05-03T11:26:30.833Z,16.47
2018-05-03T11:27:30.829Z,16.47
2018-05-03T11:28:31.085Z,16.45
2018-05-03T11:29:31.089Z,16.67
2018-05-03T11:30:31.075Z,16.7
2018-05-03T11:31:31.524Z,16.74
2018-05-03T11:32:31.327Z,16.72
2018-05-03T11:33:31.330Z,16.74
2018-05-03T11:34:31.058Z,16.74
2018-05-03T11:35:31.131Z,16.76
2018-05-03T11:36:31.061Z,16.67
2018-05-03T11:37:31.308Z,16.58
2018-05-03T11:38:31.061Z,16.52
2018-05-03T11:39:31.295Z,16.66
2018-05-03T11:40:31.035Z,16.66
2018-05-03T11:41:31.038Z,16.69
2018-05-03T11:42:31.284Z,16.74
2018-05-03T11:43:31.019Z,16.66
2018-05-03T11:44:31.279Z,16.74
2018-05-03T11:45:31.286Z,16.73
2018-05-03T11:46:31.270Z,16.87
2018-05-03T11:47:31.263Z,16.88
2018-05-03T11:48:31.281Z,17.1
2018-05-03T11:49:30.999Z,17.13
2018-05-03T11:50:30.739Z,17.13
2018-05-03T11:51:30.992Z,17.22
2018-05-03T11:52:30.729Z,17.2
2018-05-03T11:53:30.725Z,17.09
2018-05-03T11:54:30.990Z,17.05
2018-05-03T11:55:31.231Z,16.94
2018-05-03T11:56:31.235Z,16.87
2018-05-03T11:57:31.226Z,16.81
2018-05-03T11:58:30.707Z,16.72
2018-05-03T11:59:31.093Z,16.7
2018-05-03T12:00:31.219Z,16.69
2018-05-03T12:01:30.952Z,16.65
2018-05-03T12:02:31.603Z,16.62
2018-05-03T12:03:31.203Z,16.58
2018-05-03T12:04:30.944Z,16.62
2018-05-03T12:05:31.213Z,16.52
2018-05-03T12:06:31.193Z,16.49
2018-05-03T12:07:31.184Z,16.47
2018-05-03T12:08:31.186Z,16.49
2018-05-03T12:09:31.202Z,16.52
2018-05-03T12:10:31.177Z,16.47
2018-05-03T12:11:31.364Z,16.42
2018-05-03T12:12:31.166Z,16.34
2018-05-03T12:13:31.170Z,16.29
2018-05-03T12:14:30.901Z,16.27
2018-05-03T12:15:31.157Z,16.27
2018-05-03T12:16:31.151Z,16.29
2018-05-03T12:17:30.907Z,16.32
2018-05-03T12:18:31.166Z,16.29
2018-05-03T12:19:30.887Z,16.32
2018-05-03T12:20:30.878Z,16.29
2018-05-03T12:21:30.613Z,16.37
2018-05-03T12:22:31.124Z,16.4
2018-05-03T12:23:31.120Z,16.32
2018-05-03T12:24:31.259Z,16.27
2018-05-03T12:25:31.116Z,16.26
2018-05-03T12:26:31.107Z,16.3
2018-05-03T12:27:31.105Z,16.25
2018-05-03T12:28:31.098Z,16.26
2018-05-03T12:29:30.579Z,16.3
2018-05-03T12:30:30.573Z,16.33
2018-05-03T12:31:30.571Z,16.36
2018-05-03T12:32:31.086Z,16.39
2018-05-03T12:33:31.083Z,16.48
2018-05-03T12:34:31.090Z,16.47
2018-05-03T12:35:31.069Z,16.52
2018-05-03T12:36:30.805Z,16.45
2018-05-03T12:37:30.799Z,16.55
2018-05-03T12:38:30.796Z,16.49
2018-05-03T12:39:30.536Z,16.36
2018-05-03T12:40:31.048Z,16.39
2018-05-03T12:41:30.785Z,16.52
2018-05-03T12:42:30.767Z,16.48
2018-05-03T12:43:31.038Z,16.4
2018-05-03T12:44:31.039Z,16.44
2018-05-03T12:45:30.766Z,16.32
2018-05-03T12:46:31.021Z,16.33
2018-05-03T12:47:30.761Z,16.34
2018-05-03T12:48:30.987Z,16.42
2018-05-03T12:49:31.008Z,16.45
2018-05-03T12:50:31.002Z,16.42
2018-05-03T12:51:30.741Z,16.47
2018-05-03T12:52:30.737Z,16.47
2018-05-03T12:53:31.016Z,16.33
2018-05-03T12:54:30.735Z,16.47
2018-05-03T12:55:30.987Z,16.62
2018-05-03T12:56:30.722Z,16.67
2018-05-03T12:57:30.972Z,16.55
2018-05-03T12:58:30.978Z,16.63
2018-05-03T12:59:30.709Z,16.59
2018-05-03T13:00:31.192Z,16.59
2018-05-03T13:01:30.963Z,16.66
2018-05-03T13:02:30.976Z,16.69
2018-05-03T13:03:30.969Z,16.84
2018-05-03T13:04:30.946Z,16.76